createdAt,value
2023-02-18T00:01:12.651Z,102040.13
2023-02-18T00:03:41.478Z,102036.38
2023-02-18T00:06:16.529Z,102044.09
2023-02-18T00:08:45.180Z,102039.16
2023-02-18T00:11:12.953Z,102039.16
2023-02-18T00:13:40.123Z,102038.25
2023-02-18T00:16:12.466Z,102030.66
2023-02-18T00:18:40.408Z,102035.88
2023-02-18T00:21:08.284Z,102038.59
2023-02-18T00:23:36.043Z,102043.91
2023-02-18T00:26:13.280Z,102034.63
2023-02-18T00:28:40.994Z,102029.63
2023-02-18T00:31:10.748Z,102035.63
2023-02-18T00:33:37.902Z,102028.72
2023-02-18T00:36:07.981Z,102019.88
2023-02-18T00:38:35.250Z,102027.53
2023-02-18T00:41:03.085Z,102023.13
2023-02-18T00:43:30.366Z,102031.91
2023-02-18T00:45:57.502Z,102021.13
2023-02-18T00:48:25.447Z,102028.94
2023-02-18T00:50:52.466Z,102018.47
2023-02-18T00:53:19.534Z,102010.41
2023-02-18T00:55:49.766Z,102010.47
2023-02-18T00:58:16.855Z,102003.34
2023-02-18T01:00:44.002Z,102006.00
2023-02-18T01:03:11.493Z,102005.13
2023-02-18T01:05:40.056Z,102004.13
2023-02-18T01:08:09.213Z,101997.78
2023-02-18T01:10:40.269Z,101998.69
2023-02-18T01:13:07.783Z,102002.19
2023-02-18T01:15:34.863Z,102001.09
2023-02-18T01:18:01.901Z,102003.22
2023-02-18T01:20:29.281Z,101999.19
2023-02-18T01:22:56.556Z,101992.44
2023-02-18T01:25:24.449Z,101991.50
2023-02-18T01:27:51.481Z,101989.47
2023-02-18T01:30:19.471Z,102000.56
2023-02-18T01:32:46.732Z,101992.88
2023-02-18T01:35:16.838Z,101998.53
2023-02-18T01:37:43.967Z,101994.69
2023-02-18T01:40:13.639Z,101989.09
2023-02-18T01:42:40.945Z,101978.16
2023-02-18T01:45:35.954Z,101980.56
2023-02-18T01:48:34.115Z,101983.13
2023-02-18T01:51:07.289Z,101980.69
2023-02-18T01:53:57.389Z,101970.06
2023-02-18T01:56:48.574Z,101959.13
2023-02-18T01:59:28.129Z,101964.00
2023-02-18T02:01:56.753Z,101959.75
2023-02-18T02:04:24.252Z,101971.03
2023-02-18T02:06:52.544Z,101969.22
2023-02-18T02:09:21.967Z,101960.44
2023-02-18T02:12:07.940Z,101947.53
2023-02-18T02:14:56.663Z,101934.13
2023-02-18T02:17:45.161Z,101932.34
2023-02-18T02:20:17.751Z,101929.28
2023-02-18T02:23:07.670Z,101917.31
2023-02-18T02:26:25.108Z,101907.09
2023-02-18T02:29:16.857Z,101903.44
2023-02-18T02:31:53.833Z,101896.72
2023-02-18T02:34:51.269Z,101889.94
2023-02-18T02:37:49.188Z,101879.66
2023-02-18T02:40:27.788Z,101871.97
2023-02-18T02:43:02.922Z,101852.41
2023-02-18T02:45:49.557Z,101844.75
2023-02-18T02:48:26.450Z,101841.13
2023-02-18T02:51:28.192Z,101827.91
2023-02-18T02:54:08.432Z,101829.84
2023-02-18T02:56:35.516Z,101820.59
2023-02-18T02:59:07.632Z,101799.31
2023-02-18T03:01:57.670Z,101815.28
2023-02-18T03:04:54.687Z,101808.44
2023-02-18T03:08:08.865Z,101806.16
2023-02-18T03:10:47.884Z,101804.75
2023-02-18T03:13:44.201Z,101798.34
2023-02-18T03:16:25.475Z,101802.84
2023-02-18T03:19:01.447Z,101802.13
2023-02-18T03:22:06.587Z,101793.06
2023-02-18T03:24:40.514Z,101772.47
2023-02-18T03:27:31.694Z,101778.53
2023-02-18T03:30:11.031Z,101766.75
2023-02-18T03:32:38.100Z,101752.91
2023-02-18T03:35:11.322Z,101766.47
2023-02-18T03:37:43.133Z,101746.56
2023-02-18T03:40:11.522Z,101743.28
2023-02-18T03:42:38.581Z,101744.38
2023-02-18T03:45:06.076Z,101739.19
2023-02-18T03:47:33.286Z,101725.13
2023-02-18T03:50:00.335Z,101731.41
2023-02-18T03:52:27.824Z,101735.03
2023-02-18T03:54:55.079Z,101726.41
2023-02-18T03:57:22.197Z,101720.19
2023-02-18T03:59:49.276Z,101717.53
2023-02-18T04:02:16.296Z,101709.75
2023-02-18T04:04:43.364Z,101708.19
2023-02-18T04:07:10.454Z,101705.00
2023-02-18T04:09:37.528Z,101710.34
2023-02-18T04:12:04.685Z,101691.78
2023-02-18T04:14:31.766Z,101709.19
2023-02-18T04:16:58.822Z,101688.66
2023-02-18T04:19:25.983Z,101683.41
2023-02-18T04:21:53.027Z,101679.16
2023-02-18T04:24:20.425Z,101672.22
2023-02-18T04:26:47.517Z,101667.50
2023-02-18T04:29:14.584Z,101673.81
2023-02-18T04:31:41.725Z,101673.75
2023-02-18T04:34:08.815Z,101668.09
2023-02-18T04:36:35.828Z,101654.31
2023-02-18T04:39:03.472Z,101657.16
2023-02-18T04:41:30.674Z,101663.63
2023-02-18T04:43:59.580Z,101669.78
2023-02-18T04:46:26.784Z,101653.38
2023-02-18T04:48:53.871Z,101639.63
2023-02-18T04:51:21.289Z,101653.44
2023-02-18T04:53:48.375Z,101640.72
2023-02-18T04:56:15.477Z,101636.94
2023-02-18T04:58:42.511Z,101622.34
2023-02-18T05:01:10.682Z,101631.69
2023-02-18T05:03:37.726Z,101630.72
2023-02-18T05:06:05.020Z,101617.94
2023-02-18T05:08:32.284Z,101632.59
2023-02-18T05:10:59.489Z,101636.50
2023-02-18T05:13:26.581Z,101621.75
2023-02-18T05:15:54.949Z,101621.94
2023-02-18T05:18:22.076Z,101629.84
2023-02-18T05:20:49.113Z,101624.56
2023-02-18T05:23:16.241Z,101623.53
2023-02-18T05:25:43.334Z,101617.47
2023-02-18T05:28:10.332Z,101622.81
2023-02-18T05:30:37.453Z,101607.22
2023-02-18T05:33:04.577Z,101611.56
2023-02-18T05:35:31.770Z,101593.31
2023-02-18T05:37:58.803Z,101596.91
2023-02-18T05:40:28.658Z,101582.50
2023-02-18T05:42:58.566Z,101593.41
2023-02-18T05:45:26.166Z,101578.72
2023-02-18T05:47:54.904Z,101578.81
2023-02-18T05:50:21.967Z,101569.91
2023-02-18T05:52:49.192Z,101584.44
2023-02-18T05:55:16.324Z,101578.81
2023-02-18T05:57:43.348Z,101584.84
2023-02-18T06:00:11.127Z,101582.28
2023-02-18T06:02:38.227Z,101571.03
2023-02-18T06:05:05.902Z,101564.03
2023-02-18T06:07:32.945Z,101580.75
2023-02-18T06:10:00.161Z,101583.53
2023-02-18T06:12:27.267Z,101580.78
2023-02-18T06:14:56.608Z,101591.38
2023-02-18T06:17:26.018Z,101592.41
2023-02-18T06:19:53.080Z,101592.38
2023-02-18T06:22:20.172Z,101577.25
2023-02-18T06:24:47.312Z,101583.59
2023-02-18T06:27:14.400Z,101596.59
2023-02-18T06:29:41.571Z,101584.50
2023-02-18T06:32:08.718Z,101588.22
2023-02-18T06:34:35.818Z,101581.44
2023-02-18T06:37:02.868Z,101587.41
2023-02-18T06:39:29.975Z,101584.97
2023-02-18T06:41:57.057Z,101591.91
2023-02-18T06:44:24.881Z,101602.09
2023-02-18T06:46:51.935Z,101601.34
2023-02-18T06:49:19.022Z,101594.34
2023-02-18T06:51:46.028Z,101600.75
2023-02-18T06:54:13.152Z,101600.25
2023-02-18T06:56:40.149Z,101603.31
2023-02-18T06:59:08.281Z,101596.44
2023-02-18T07:01:35.353Z,101590.25
2023-02-18T07:04:02.940Z,101583.34
2023-02-18T07:06:30.044Z,101589.84
2023-02-18T07:08:57.298Z,101581.50
2023-02-18T07:11:26.703Z,101575.34
2023-02-18T07:13:55.198Z,101578.88
2023-02-18T07:16:22.315Z,101584.63
2023-02-18T07:18:49.495Z,101573.97
2023-02-18T07:21:16.604Z,101583.41
2023-02-18T07:23:43.673Z,101602.41
2023-02-18T07:26:13.074Z,101589.47
2023-02-18T07:28:41.276Z,101577.66
2023-02-18T07:31:08.730Z,101573.78
2023-02-18T07:33:35.884Z,101569.50
2023-02-18T07:36:03.213Z,101569.50
2023-02-18T07:38:30.460Z,101566.72
2023-02-18T07:40:58.721Z,101567.03
2023-02-18T07:43:26.532Z,101558.63
2023-02-18T07:45:53.555Z,101569.09
2023-02-18T07:48:20.701Z,101557.88
2023-02-18T07:50:47.754Z,101580.78
2023-02-18T07:53:16.306Z,101571.91
2023-02-18T07:55:49.686Z,101576.47
2023-02-18T07:58:28.506Z,101571.69
2023-02-18T08:00:57.216Z,101578.38
2023-02-18T08:03:28.897Z,101589.22
2023-02-18T08:05:57.094Z,101576.94
2023-02-18T08:08:27.957Z,101586.94
2023-02-18T08:10:59.666Z,101593.84
2023-02-18T08:13:28.495Z,101605.97
2023-02-18T08:15:57.372Z,101581.75
2023-02-18T08:18:26.997Z,101592.47
2023-02-18T08:20:56.941Z,101594.16
2023-02-18T08:23:26.495Z,101593.19
2023-02-18T08:25:55.667Z,101600.19
2023-02-18T08:28:24.983Z,101612.78
2023-02-18T08:30:55.982Z,101608.84
2023-02-18T08:33:24.859Z,101601.56
2023-02-18T08:35:54.908Z,101615.63
2023-02-18T08:38:24.835Z,101622.00
2023-02-18T08:41:02.471Z,101624.94
2023-02-18T08:43:29.570Z,101635.94
2023-02-18T08:45:58.517Z,101621.25
2023-02-18T08:48:26.974Z,101611.13
2023-02-18T08:50:55.053Z,101598.00
2023-02-18T08:53:22.337Z,101604.00
2023-02-18T08:55:49.538Z,101600.16
2023-02-18T08:58:17.312Z,101612.47
2023-02-18T09:00:46.234Z,101616.53
2023-02-18T09:03:16.159Z,101622.09
2023-02-18T09:05:43.225Z,101623.97
2023-02-18T09:08:10.361Z,101618.78
2023-02-18T09:10:39.374Z,101628.16
2023-02-18T09:13:06.531Z,101627.41
2023-02-18T09:15:33.628Z,101632.53
2023-02-18T09:18:00.725Z,101618.19
2023-02-18T09:20:28.450Z,101636.47
2023-02-18T09:22:57.598Z,101621.03
2023-02-18T09:25:26.245Z,101610.63
2023-02-18T09:27:56.679Z,101624.38
2023-02-18T09:30:26.064Z,101629.78
2023-02-18T09:32:53.083Z,101631.63
2023-02-18T09:35:20.438Z,101637.63
2023-02-18T09:37:47.536Z,101630.09
2023-02-18T09:40:32.807Z,101635.91
2023-02-18T09:43:00.805Z,101619.44
2023-02-18T09:45:28.018Z,101647.69
2023-02-18T09:47:56.950Z,101650.78
2023-02-18T09:50:28.938Z,101634.56
2023-02-18T09:52:59.615Z,101650.91
2023-02-18T09:55:39.712Z,101651.47
2023-02-18T09:58:19.968Z,101654.03
2023-02-18T10:00:58.635Z,101651.56
2023-02-18T10:03:27.039Z,101655.84
2023-02-18T10:06:02.898Z,101659.34
2023-02-18T10:08:40.290Z,101669.91
2023-02-18T10:11:16.530Z,101669.41
2023-02-18T10:13:44.936Z,101661.84
2023-02-18T10:16:17.872Z,101682.75
2023-02-18T10:18:49.233Z,101654.91
2023-02-18T10:21:31.515Z,101658.47
2023-02-18T10:24:06.979Z,101671.53
2023-02-18T10:26:37.483Z,101668.97
2023-02-18T10:29:13.669Z,101686.25
2023-02-18T10:31:56.843Z,101669.25
2023-02-18T10:34:28.589Z,101670.16
2023-02-18T10:37:07.600Z,101658.31
2023-02-18T10:40:19.875Z,101674.94
2023-02-18T10:43:06.752Z,101695.69
2023-02-18T10:45:44.547Z,101680.31
2023-02-18T10:48:26.219Z,101678.31
2023-02-18T10:50:54.488Z,101685.47
2023-02-18T10:53:40.402Z,101692.56
2023-02-18T10:56:08.807Z,101684.16
2023-02-18T10:58:37.078Z,101697.13
2023-02-18T11:01:08.854Z,101670.72
2023-02-18T11:03:41.411Z,101682.53
2023-02-18T11:06:21.917Z,101680.81
2023-02-18T11:08:50.117Z,101689.22
2023-02-18T11:11:31.633Z,101686.16
2023-02-18T11:14:01.540Z,101679.53
2023-02-18T11:16:40.408Z,101678.41
2023-02-18T11:19:35.131Z,101686.50
2023-02-18T11:22:18.948Z,101681.19
2023-02-18T11:24:50.351Z,101696.06
2023-02-18T11:27:39.626Z,101701.69
2023-02-18T11:30:18.089Z,101677.09
2023-02-18T11:32:48.139Z,101687.84
2023-02-18T11:35:26.100Z,101691.25
2023-02-18T11:37:54.999Z,101695.25
2023-02-18T11:40:34.428Z,101688.44
2023-02-18T11:43:13.458Z,101700.63
2023-02-18T11:45:41.306Z,101690.47
2023-02-18T11:48:16.865Z,101682.69
2023-02-18T11:50:45.420Z,101682.75
2023-02-18T11:53:31.209Z,101692.13
2023-02-18T11:56:01.425Z,101683.81
2023-02-18T11:58:38.332Z,101684.69
2023-02-18T12:01:12.912Z,101691.91
2023-02-18T12:03:48.352Z,101693.03
2023-02-18T12:06:30.184Z,101697.69
2023-02-18T12:09:03.891Z,101695.31
2023-02-18T12:11:36.234Z,101686.69
2023-02-18T12:14:03.565Z,101687.72
2023-02-18T12:16:36.480Z,101681.94
2023-02-18T12:19:42.396Z,101691.25
2023-02-18T12:22:32.018Z,101687.06
2023-02-18T12:25:26.386Z,101685.53
2023-02-18T12:28:01.444Z,101671.91
2023-02-18T12:30:40.298Z,101687.59
2023-02-18T12:33:26.064Z,101681.34
2023-02-18T12:36:13.540Z,101685.69
2023-02-18T12:39:03.715Z,101682.63
2023-02-18T12:41:52.120Z,101685.28
2023-02-18T12:44:36.980Z,101688.94
2023-02-18T12:47:12.922Z,101688.22
2023-02-18T12:49:49.384Z,101687.34
2023-02-18T12:52:53.331Z,101693.97
2023-02-18T12:55:44.806Z,101689.63
2023-02-18T12:58:34.671Z,101692.63
2023-02-18T13:01:04.510Z,101701.63
2023-02-18T13:04:08.849Z,101704.38
2023-02-18T13:06:56.762Z,101699.34
2023-02-18T13:09:48.492Z,101700.97
2023-02-18T13:12:23.406Z,101702.47
2023-02-18T13:15:20.849Z,101700.84
2023-02-18T13:17:49.870Z,101708.41
2023-02-18T13:20:41.502Z,101702.91
2023-02-18T13:23:17.616Z,101713.50
2023-02-18T13:25:46.719Z,101722.59
2023-02-18T13:28:48.927Z,101695.81
2023-02-18T13:31:35.029Z,101700.28
2023-02-18T13:34:27.088Z,101700.41
2023-02-18T13:37:04.140Z,101694.44
2023-02-18T13:39:32.266Z,101700.41
2023-02-18T13:42:17.362Z,101694.91
2023-02-18T13:44:56.614Z,101698.50
2023-02-18T13:47:42.912Z,101706.31
2023-02-18T13:50:29.136Z,101727.03
2023-02-18T13:53:21.423Z,101720.38
2023-02-18T13:55:56.274Z,101704.91
2023-02-18T13:58:35.943Z,101712.69
2023-02-18T14:01:12.228Z,101708.63
2023-02-18T14:03:45.112Z,101721.69
2023-02-18T14:06:25.990Z,101726.16
2023-02-18T14:09:23.694Z,101717.41
2023-02-18T14:12:26.066Z,101721.16
2023-02-18T14:14:56.084Z,101722.84
2023-02-18T14:17:23.052Z,101714.09
2023-02-18T14:20:02.604Z,101706.94
2023-02-18T14:22:29.632Z,101724.22
2023-02-18T14:25:02.521Z,101710.41
2023-02-18T14:27:29.605Z,101723.69
2023-02-18T14:30:04.831Z,101720.75
2023-02-18T14:32:32.012Z,101722.34
2023-02-18T14:35:26.975Z,101727.59
2023-02-18T14:38:12.693Z,101725.97
2023-02-18T14:41:09.591Z,101725.34
2023-02-18T14:43:49.278Z,101729.59
2023-02-18T14:46:37.663Z,101724.31
2023-02-18T14:49:35.633Z,101725.13
2023-02-18T14:52:05.159Z,101733.06
2023-02-18T14:54:32.468Z,101729.66
2023-02-18T14:57:04.372Z,101716.63
2023-02-18T14:59:36.170Z,101721.72
2023-02-18T15:02:03.302Z,101723.53
2023-02-18T15:04:30.382Z,101725.22
2023-02-18T15:07:05.413Z,101735.41
2023-02-18T15:09:32.561Z,101731.84
2023-02-18T15:12:05.673Z,101727.59
2023-02-18T15:14:40.036Z,101735.59
2023-02-18T15:17:13.582Z,101719.81
2023-02-18T15:19:44.864Z,101729.25
2023-02-18T15:22:18.631Z,101737.16
2023-02-18T15:24:45.915Z,101737.00
2023-02-18T15:27:17.934Z,101724.47
2023-02-18T15:29:49.650Z,101721.81
2023-02-18T15:32:18.602Z,101738.25
2023-02-18T15:34:49.674Z,101743.13
2023-02-18T15:37:16.734Z,101734.53
2023-02-18T15:39:45.385Z,101734.44
2023-02-18T15:42:31.647Z,101729.88
2023-02-18T15:45:26.591Z,101725.72
2023-02-18T15:47:57.331Z,101727.59
2023-02-18T15:50:28.242Z,101725.97
2023-02-18T15:52:59.943Z,101728.16
2023-02-18T15:55:38.371Z,101733.28
2023-02-18T15:58:12.413Z,101737.59
2023-02-18T16:00:47.231Z,101728.09
2023-02-18T16:03:26.047Z,101723.31
2023-02-18T16:06:09.531Z,101736.31
2023-02-18T16:08:36.991Z,101726.56
2023-02-18T16:11:11.751Z,101721.38
2023-02-18T16:13:47.472Z,101719.88
2023-02-18T16:16:26.189Z,101731.75
2023-02-18T16:18:55.513Z,101733.84
2023-02-18T16:21:28.475Z,101720.88
2023-02-18T16:23:59.884Z,101729.72
2023-02-18T16:26:41.073Z,101728.59
2023-02-18T16:29:14.406Z,101723.31
2023-02-18T16:31:42.715Z,101731.31
2023-02-18T16:34:09.800Z,101736.50
2023-02-18T16:36:37.043Z,101722.72
2023-02-18T16:39:04.251Z,101721.75
2023-02-18T16:41:31.258Z,101721.59
2023-02-18T16:43:58.570Z,101721.41
2023-02-18T16:46:26.558Z,101725.84
2023-02-18T16:48:56.653Z,101726.84
2023-02-18T16:51:23.657Z,101738.81
2023-02-18T16:53:52.188Z,101736.28
2023-02-18T16:56:26.577Z,101740.41
2023-02-18T16:58:54.879Z,101748.06
2023-02-18T17:01:41.571Z,101747.09
2023-02-18T17:04:12.356Z,101732.41
2023-02-18T17:06:39.447Z,101735.94
2023-02-18T17:09:16.629Z,101727.16
2023-02-18T17:11:48.095Z,101734.88
2023-02-18T17:14:17.939Z,101735.78
2023-02-18T17:16:46.293Z,101739.06
2023-02-18T17:19:13.597Z,101738.19
2023-02-18T17:21:40.958Z,101739.16
2023-02-18T17:24:12.762Z,101739.47
2023-02-18T17:26:40.127Z,101741.81
2023-02-18T17:29:07.206Z,101740.97
2023-02-18T17:31:37.839Z,101739.19
2023-02-18T17:34:07.906Z,101737.53
2023-02-18T17:36:35.357Z,101733.06
2023-02-18T17:39:11.874Z,101741.56
2023-02-18T17:41:38.997Z,101735.31
2023-02-18T17:44:15.469Z,101729.88
2023-02-18T17:46:42.536Z,101733.38
2023-02-18T17:49:09.916Z,101729.03
2023-02-18T17:51:38.317Z,101734.19
2023-02-18T17:54:19.798Z,101743.53
2023-02-18T17:56:47.006Z,101738.16
2023-02-18T17:59:14.173Z,101749.19
2023-02-18T18:01:42.392Z,101741.84
2023-02-18T18:04:18.250Z,101741.91
2023-02-18T18:06:49.811Z,101741.28
2023-02-18T18:09:16.890Z,101743.53
2023-02-18T18:11:43.917Z,101752.78
2023-02-18T18:14:13.662Z,101757.81
2023-02-18T18:16:40.710Z,101759.06
2023-02-18T18:19:07.720Z,101765.63
2023-02-18T18:21:36.607Z,101755.13
2023-02-18T18:24:04.190Z,101752.50
2023-02-18T18:26:31.335Z,101753.16
2023-02-18T18:28:58.424Z,101753.91
2023-02-18T18:31:26.589Z,101746.13
2023-02-18T18:33:56.126Z,101738.41
2023-02-18T18:36:25.314Z,101744.69
2023-02-18T18:38:52.666Z,101733.16
2023-02-18T18:41:22.349Z,101749.72
2023-02-18T18:43:49.774Z,101748.75
2023-02-18T18:46:17.714Z,101748.59
2023-02-18T18:48:44.968Z,101747.75
2023-02-18T18:51:16.363Z,101745.84
2023-02-18T18:53:43.764Z,101745.81
2023-02-18T18:56:11.885Z,101743.38
2023-02-18T18:58:39.036Z,101739.06
2023-02-18T19:01:14.282Z,101734.72
2023-02-18T19:03:42.286Z,101724.00
2023-02-18T19:06:13.778Z,101728.53
2023-02-18T19:08:40.883Z,101733.09
2023-02-18T19:11:08.312Z,101733.03
2023-02-18T19:13:36.214Z,101730.50
2023-02-18T19:16:10.950Z,101733.28
2023-02-18T19:18:38.244Z,101727.41
2023-02-18T19:21:05.545Z,101719.69
2023-02-18T19:23:33.873Z,101725.81
2023-02-18T19:26:01.446Z,101728.19
2023-02-18T19:28:28.654Z,101734.34
2023-02-18T19:30:56.757Z,101722.81
2023-02-18T19:33:24.285Z,101726.44
2023-02-18T19:35:52.264Z,101725.66
2023-02-18T19:38:19.428Z,101725.03
2023-02-18T19:40:47.210Z,101712.13
2023-02-18T19:43:14.308Z,101711.06
2023-02-18T19:45:43.654Z,101714.44
2023-02-18T19:48:12.370Z,101710.75
2023-02-18T19:50:41.659Z,101707.34
2023-02-18T19:53:11.248Z,101706.44
2023-02-18T19:55:38.873Z,101703.84
2023-02-18T19:58:06.356Z,101709.59
2023-02-18T20:00:33.587Z,101706.97
2023-02-18T20:03:00.796Z,101704.22
2023-02-18T20:05:27.926Z,101694.75
2023-02-18T20:07:58.178Z,101688.59
2023-02-18T20:10:26.306Z,101690.41
2023-02-18T20:12:54.981Z,101685.31
2023-02-18T20:15:22.142Z,101683.63
2023-02-18T20:17:49.998Z,101673.16
2023-02-18T20:20:17.777Z,101672.09
2023-02-18T20:22:45.157Z,101672.16
2023-02-18T20:25:12.366Z,101669.41
2023-02-18T20:27:45.251Z,101652.31
2023-02-18T20:30:21.951Z,101649.56
2023-02-18T20:32:49.029Z,101663.78
2023-02-18T20:35:16.166Z,101658.63
2023-02-18T20:37:43.253Z,101660.50
2023-02-18T20:40:10.446Z,101655.41
2023-02-18T20:42:38.864Z,101662.72
2023-02-18T20:45:06.146Z,101655.81
2023-02-18T20:47:33.184Z,101657.47
2023-02-18T20:50:00.290Z,101657.56
2023-02-18T20:52:27.354Z,101661.94
2023-02-18T20:54:54.813Z,101659.25
2023-02-18T20:57:21.925Z,101661.44
2023-02-18T20:59:49.023Z,101652.84
2023-02-18T21:02:16.724Z,101654.72
2023-02-18T21:04:45.020Z,101644.72
2023-02-18T21:07:12.122Z,101642.88
2023-02-18T21:09:39.233Z,101637.81
2023-02-18T21:12:06.302Z,101636.69
2023-02-18T21:14:33.448Z,101626.50
2023-02-18T21:17:00.508Z,101622.19
2023-02-18T21:19:27.612Z,101621.47
2023-02-18T21:21:56.972Z,101615.53
2023-02-18T21:24:25.103Z,101615.72
2023-02-18T21:26:55.117Z,101606.28
2023-02-18T21:29:22.190Z,101609.47
2023-02-18T21:31:49.471Z,101606.47
2023-02-18T21:34:16.690Z,101617.63
2023-02-18T21:36:43.904Z,101611.31
2023-02-18T21:39:11.313Z,101603.03
2023-02-18T21:41:40.666Z,101592.09
2023-02-18T21:44:09.144Z,101595.50
2023-02-18T21:46:36.791Z,101579.00
2023-02-18T21:49:12.237Z,101573.06
2023-02-18T21:51:57.011Z,101580.16
2023-02-18T21:54:26.383Z,101591.13
2023-02-18T21:56:56.271Z,101581.94
2023-02-18T21:59:26.821Z,101597.47
2023-02-18T22:01:55.314Z,101585.09
2023-02-18T22:04:22.547Z,101597.47
2023-02-18T22:06:49.595Z,101592.28
2023-02-18T22:09:18.212Z,101588.56
2023-02-18T22:11:45.307Z,101599.03
2023-02-18T22:14:13.523Z,101598.16
2023-02-18T22:16:41.244Z,101598.91
2023-02-18T22:19:09.955Z,101599.03
2023-02-18T22:21:37.061Z,101598.44
2023-02-18T22:24:06.167Z,101592.13
2023-02-18T22:26:33.943Z,101588.81
2023-02-18T22:29:01.555Z,101593.75
2023-02-18T22:31:29.980Z,101597.25
2023-02-18T22:33:58.487Z,101598.84
2023-02-18T22:36:29.358Z,101576.28
2023-02-18T22:38:57.426Z,101591.94
2023-02-18T22:41:26.800Z,101588.06
2023-02-18T22:43:58.821Z,101597.53
2023-02-18T22:46:27.573Z,101593.66
2023-02-18T22:48:58.129Z,101589.44
2023-02-18T22:51:29.275Z,101587.75
2023-02-18T22:53:57.875Z,101598.72
2023-02-18T22:56:29.290Z,101587.50
2023-02-18T22:58:57.972Z,101591.13
2023-02-18T23:01:29.240Z,101598.31
2023-02-18T23:03:58.416Z,101591.50
2023-02-18T23:06:26.338Z,101597.84
2023-02-18T23:08:55.019Z,101602.75
2023-02-18T23:11:22.326Z,101601.22
2023-02-18T23:14:09.658Z,101598.72
2023-02-18T23:16:57.346Z,101603.81
2023-02-18T23:19:27.505Z,101590.13
2023-02-18T23:21:56.271Z,101579.59
2023-02-18T23:24:24.007Z,101585.47
2023-02-18T23:26:52.424Z,101591.63
2023-02-18T23:29:19.604Z,101576.97
2023-02-18T23:31:46.825Z,101588.19
2023-02-18T23:34:15.312Z,101580.22
2023-02-18T23:36:43.317Z,101574.97
2023-02-18T23:39:12.053Z,101580.25
2023-02-18T23:41:39.592Z,101574.22
2023-02-18T23:44:10.157Z,101579.09
2023-02-18T23:46:38.030Z,101583.28
2023-02-18T23:49:05.133Z,101584.41
2023-02-18T23:51:32.517Z,101591.06
2023-02-18T23:54:02.644Z,101606.50
2023-02-18T23:56:29.897Z,101586.84
2023-02-18T23:59:00.565Z,101584.34
